sensor_id;sensor_type;location;lat;lon;timestamp;P1;durP1;ratioP1;P2;durP2;ratioP2
76604;SDS011;65496;50.978;16.998;2023-03-14T00:00:18;3.92;;;2.70;;
76604;SDS011;65496;50.978;16.998;2023-03-14T00:03:04;3.78;;;2.95;;
76604;SDS011;65496;50.978;16.998;2023-03-14T00:05:30;3.45;;;2.83;;
76604;SDS011;65496;50.978;16.998;2023-03-14T00:07:56;3.75;;;2.70;;
76604;SDS011;65496;50.978;16.998;2023-03-14T00:10:22;3.85;;;2.70;;
76604;SDS011;65496;50.978;16.998;2023-03-14T00:12:48;3.30;;;2.53;;
76604;SDS011;65496;50.978;16.998;2023-03-14T00:15:14;3.83;;;2.50;;
76604;SDS011;65496;50.978;16.998;2023-03-14T00:17:42;3.30;;;2.67;;
76604;SDS011;65496;50.978;16.998;2023-03-14T00:20:09;3.97;;;2.83;;
76604;SDS011;65496;50.978;16.998;2023-03-14T00:22:40;4.45;;;2.67;;
76604;SDS011;65496;50.978;16.998;2023-03-14T00:25:07;4.22;;;2.63;;
76604;SDS011;65496;50.978;16.998;2023-03-14T00:27:35;3.35;;;2.33;;
76604;SDS011;65496;50.978;16.998;2023-03-14T00:30:02;3.25;;;2.38;;
76604;SDS011;65496;50.978;16.998;2023-03-14T00:32:29;3.17;;;2.58;;
76604;SDS011;65496;50.978;16.998;2023-03-14T00:34:55;4.30;;;2.60;;
76604;SDS011;65496;50.978;16.998;2023-03-14T00:37:21;4.05;;;2.50;;
76604;SDS011;65496;50.978;16.998;2023-03-14T00:39:47;4.47;;;2.75;;
76604;SDS011;65496;50.978;16.998;2023-03-14T00:42:13;5.45;;;2.85;;
76604;SDS011;65496;50.978;16.998;2023-03-14T00:44:40;3.78;;;2.60;;
76604;SDS011;65496;50.978;16.998;2023-03-14T00:47:05;4.70;;;2.92;;
76604;SDS011;65496;50.978;16.998;2023-03-14T00:49:32;3.80;;;2.70;;
76604;SDS011;65496;50.978;16.998;2023-03-14T00:51:58;3.72;;;2.80;;
76604;SDS011;65496;50.978;16.998;2023-03-14T00:54:24;4.10;;;2.67;;
76604;SDS011;65496;50.978;16.998;2023-03-14T00:56:50;3.25;;;2.60;;
76604;SDS011;65496;50.978;16.998;2023-03-14T00:59:16;3.80;;;2.53;;
76604;SDS011;65496;50.978;16.998;2023-03-14T01:01:43;4.18;;;2.85;;
76604;SDS011;65496;50.978;16.998;2023-03-14T01:04:09;4.63;;;2.95;;
76604;SDS011;65496;50.978;16.998;2023-03-14T01:06:36;5.22;;;3.05;;
76604;SDS011;65496;50.978;16.998;2023-03-14T01:09:02;3.70;;;2.60;;
76604;SDS011;65496;50.978;16.998;2023-03-14T01:11:29;4.28;;;2.97;;
76604;SDS011;65496;50.978;16.998;2023-03-14T01:13:58;3.80;;;2.80;;
76604;SDS011;65496;50.978;16.998;2023-03-14T01:16:26;3.85;;;2.83;;
76604;SDS011;65496;50.978;16.998;2023-03-14T01:18:54;3.45;;;2.72;;
76604;SDS011;65496;50.978;16.998;2023-03-14T01:21:21;3.55;;;2.55;;
76604;SDS011;65496;50.978;16.998;2023-03-14T01:23:58;3.97;;;2.78;;
76604;SDS011;65496;50.978;16.998;2023-03-14T01:26:29;3.67;;;2.65;;
76604;SDS011;65496;50.978;16.998;2023-03-14T01:28:56;3.40;;;2.60;;
76604;SDS011;65496;50.978;16.998;2023-03-14T01:31:23;3.47;;;2.90;;
76604;SDS011;65496;50.978;16.998;2023-03-14T01:33:50;3.55;;;2.40;;
76604;SDS011;65496;50.978;16.998;2023-03-14T01:36:16;3.63;;;2.50;;
76604;SDS011;65496;50.978;16.998;2023-03-14T01:38:42;3.17;;;2.50;;
76604;SDS011;65496;50.978;16.998;2023-03-14T01:41:12;3.58;;;2.42;;
76604;SDS011;65496;50.978;16.998;2023-03-14T01:43:43;2.80;;;2.28;;
76604;SDS011;65496;50.978;16.998;2023-03-14T01:49:29;3.03;;;2.42;;
76604;SDS011;65496;50.978;16.998;2023-03-14T01:51:38;3.22;;;2.60;;
76604;SDS011;65496;50.978;16.998;2023-03-14T01:54:13;3.28;;;2.33;;
76604;SDS011;65496;50.978;16.998;2023-03-14T01:56:43;3.70;;;2.40;;
76604;SDS011;65496;50.978;16.998;2023-03-14T01:59:13;4.22;;;2.67;;
76604;SDS011;65496;50.978;16.998;2023-03-14T02:01:40;3.42;;;2.45;;
76604;SDS011;65496;50.978;16.998;2023-03-14T02:04:11;3.42;;;2.58;;
76604;SDS011;65496;50.978;16.998;2023-03-14T02:06:58;3.67;;;2.40;;
76604;SDS011;65496;50.978;16.998;2023-03-14T02:09:31;4.28;;;2.30;;
76604;SDS011;65496;50.978;16.998;2023-03-14T02:11:57;3.63;;;2.50;;
76604;SDS011;65496;50.978;16.998;2023-03-14T02:14:29;3.13;;;2.40;;
76604;SDS011;65496;50.978;16.998;2023-03-14T02:17:00;3.97;;;2.67;;
76604;SDS011;65496;50.978;16.998;2023-03-14T02:22:10;4.10;;;2.85;;
76604;SDS011;65496;50.978;16.998;2023-03-14T02:24:46;3.40;;;2.60;;
76604;SDS011;65496;50.978;16.998;2023-03-14T02:27:25;3.35;;;2.35;;
76604;SDS011;65496;50.978;16.998;2023-03-14T02:32:18;4.45;;;2.72;;
76604;SDS011;65496;50.978;16.998;2023-03-14T02:34:48;3.55;;;2.38;;
76604;SDS011;65496;50.978;16.998;2023-03-14T02:37:17;4.10;;;2.67;;
76604;SDS011;65496;50.978;16.998;2023-03-14T02:39:46;3.20;;;2.60;;
76604;SDS011;65496;50.978;16.998;2023-03-14T02:42:14;3.83;;;3.00;;
76604;SDS011;65496;50.978;16.998;2023-03-14T02:44:54;3.75;;;2.60;;
76604;SDS011;65496;50.978;16.998;2023-03-14T02:47:28;3.78;;;2.63;;
76604;SDS011;65496;50.978;16.998;2023-03-14T02:50:00;3.83;;;2.35;;
76604;SDS011;65496;50.978;16.998;2023-03-14T02:52:29;3.40;;;2.60;;
76604;SDS011;65496;50.978;16.998;2023-03-14T02:54:55;3.58;;;2.85;;
76604;SDS011;65496;50.978;16.998;2023-03-14T02:57:21;3.50;;;2.53;;
76604;SDS011;65496;50.978;16.998;2023-03-14T02:59:47;4.05;;;2.65;;
76604;SDS011;65496;50.978;16.998;2023-03-14T03:02:13;3.00;;;2.38;;
76604;SDS011;65496;50.978;16.998;2023-03-14T03:04:40;4.20;;;2.70;;
76604;SDS011;65496;50.978;16.998;2023-03-14T03:07:06;3.08;;;2.30;;
76604;SDS011;65496;50.978;16.998;2023-03-14T03:09:32;2.90;;;2.13;;
76604;SDS011;65496;50.978;16.998;2023-03-14T03:11:58;3.28;;;2.45;;
76604;SDS011;65496;50.978;16.998;2023-03-14T03:14:24;3.67;;;2.50;;
76604;SDS011;65496;50.978;16.998;2023-03-14T03:16:50;2.88;;;2.30;;
76604;SDS011;65496;50.978;16.998;2023-03-14T03:19:16;3.33;;;2.70;;
76604;SDS011;65496;50.978;16.998;2023-03-14T03:21:43;3.65;;;2.47;;
76604;SDS011;65496;50.978;16.998;2023-03-14T03:24:10;3.38;;;2.50;;
76604;SDS011;65496;50.978;16.998;2023-03-14T03:26:36;2.60;;;2.20;;
76604;SDS011;65496;50.978;16.998;2023-03-14T03:29:03;3.10;;;2.25;;
76604;SDS011;65496;50.978;16.998;2023-03-14T03:31:29;3.63;;;2.20;;
76604;SDS011;65496;50.978;16.998;2023-03-14T03:33:55;4.82;;;2.50;;
76604;SDS011;65496;50.978;16.998;2023-03-14T03:36:22;3.50;;;2.38;;
76604;SDS011;65496;50.978;16.998;2023-03-14T03:38:49;4.00;;;2.67;;
76604;SDS011;65496;50.978;16.998;2023-03-14T03:41:15;3.75;;;2.55;;
76604;SDS011;65496;50.978;16.998;2023-03-14T03:43:42;2.97;;;2.28;;
76604;SDS011;65496;50.978;16.998;2023-03-14T03:46:08;3.67;;;2.47;;
76604;SDS011;65496;50.978;16.998;2023-03-14T03:48:34;3.30;;;2.50;;
76604;SDS011;65496;50.978;16.998;2023-03-14T03:51:01;2.90;;;2.30;;
76604;SDS011;65496;50.978;16.998;2023-03-14T03:53:27;2.72;;;2.20;;
76604;SDS011;65496;50.978;16.998;2023-03-14T03:55:53;2.67;;;2.30;;
76604;SDS011;65496;50.978;16.998;2023-03-14T03:58:19;3.22;;;2.30;;
76604;SDS011;65496;50.978;16.998;2023-03-14T04:00:45;3.17;;;2.30;;
76604;SDS011;65496;50.978;16.998;2023-03-14T04:03:11;2.90;;;2.60;;
76604;SDS011;65496;50.978;16.998;2023-03-14T04:05:37;3.50;;;2.42;;
76604;SDS011;65496;50.978;16.998;2023-03-14T04:08:04;2.90;;;2.17;;
76604;SDS011;65496;50.978;16.998;2023-03-14T04:10:30;2.65;;;2.17;;
76604;SDS011;65496;50.978;16.998;2023-03-14T04:12:59;2.83;;;2.10;;
76604;SDS011;65496;50.978;16.998;2023-03-14T04:15:25;3.60;;;2.45;;
76604;SDS011;65496;50.978;16.998;2023-03-14T04:17:55;2.83;;;2.33;;
76604;SDS011;65496;50.978;16.998;2023-03-14T04:20:22;3.92;;;2.63;;
76604;SDS011;65496;50.978;16.998;2023-03-14T04:22:49;3.30;;;2.70;;
76604;SDS011;65496;50.978;16.998;2023-03-14T04:25:18;3.47;;;2.35;;
76604;SDS011;65496;50.978;16.998;2023-03-14T04:27:46;3.10;;;2.47;;
76604;SDS011;65496;50.978;16.998;2023-03-14T04:30:12;3.00;;;2.55;;
76604;SDS011;65496;50.978;16.998;2023-03-14T04:32:39;2.92;;;2.35;;
76604;SDS011;65496;50.978;16.998;2023-03-14T04:35:05;2.97;;;2.30;;
76604;SDS011;65496;50.978;16.998;2023-03-14T04:37:31;2.42;;;2.08;;
76604;SDS011;65496;50.978;16.998;2023-03-14T04:39:57;2.38;;;1.90;;
76604;SDS011;65496;50.978;16.998;2023-03-14T04:42:23;2.83;;;2.20;;
76604;SDS011;65496;50.978;16.998;2023-03-14T04:44:49;3.40;;;2.17;;
76604;SDS011;65496;50.978;16.998;2023-03-14T04:47:16;2.50;;;2.10;;
76604;SDS011;65496;50.978;16.998;2023-03-14T04:49:42;4.03;;;2.40;;
76604;SDS011;65496;50.978;16.998;2023-03-14T04:52:08;2.90;;;2.30;;
76604;SDS011;65496;50.978;16.998;2023-03-14T04:54:34;2.85;;;2.38;;
76604;SDS011;65496;50.978;16.998;2023-03-14T04:57:00;3.63;;;2.78;;
76604;SDS011;65496;50.978;16.998;2023-03-14T04:59:26;3.05;;;2.20;;
76604;SDS011;65496;50.978;16.998;2023-03-14T05:01:52;3.55;;;2.28;;
76604;SDS011;65496;50.978;16.998;2023-03-14T05:04:18;2.92;;;2.15;;
76604;SDS011;65496;50.978;16.998;2023-03-14T05:06:44;3.03;;;2.20;;
76604;SDS011;65496;50.978;16.998;2023-03-14T05:09:10;3.03;;;2.63;;
76604;SDS011;65496;50.978;16.998;2023-03-14T05:11:36;3.05;;;2.30;;
76604;SDS011;65496;50.978;16.998;2023-03-14T05:14:02;3.10;;;2.38;;
76604;SDS011;65496;50.978;16.998;2023-03-14T05:16:28;2.97;;;2.22;;
76604;SDS011;65496;50.978;16.998;2023-03-14T05:18:54;3.10;;;2.30;;
76604;SDS011;65496;50.978;16.998;2023-03-14T05:21:20;3.67;;;2.35;;
76604;SDS011;65496;50.978;16.998;2023-03-14T05:23:46;2.97;;;2.13;;
76604;SDS011;65496;50.978;16.998;2023-03-14T05:26:12;2.72;;;2.13;;
76604;SDS011;65496;50.978;16.998;2023-03-14T05:28:38;3.05;;;2.20;;
76604;SDS011;65496;50.978;16.998;2023-03-14T05:31:08;3.20;;;2.38;;
76604;SDS011;65496;50.978;16.998;2023-03-14T05:33:34;3.22;;;2.50;;
76604;SDS011;65496;50.978;16.998;2023-03-14T05:36:01;5.85;;;2.47;;
76604;SDS011;65496;50.978;16.998;2023-03-14T05:38:27;2.95;;;2.22;;
76604;SDS011;65496;50.978;16.998;2023-03-14T05:40:53;3.17;;;2.53;;
76604;SDS011;65496;50.978;16.998;2023-03-14T05:43:19;3.28;;;2.33;;
76604;SDS011;65496;50.978;16.998;2023-03-14T05:45:45;3.60;;;2.35;;
76604;SDS011;65496;50.978;16.998;2023-03-14T05:48:12;3.28;;;2.40;;
76604;SDS011;65496;50.978;16.998;2023-03-14T05:50:44;4.57;;;2.65;;
76604;SDS011;65496;50.978;16.998;2023-03-14T05:53:10;3.88;;;2.45;;
76604;SDS011;65496;50.978;16.998;2023-03-14T05:55:36;3.65;;;2.90;;
76604;SDS011;65496;50.978;16.998;2023-03-14T05:58:02;4.30;;;2.65;;
76604;SDS011;65496;50.978;16.998;2023-03-14T06:00:28;4.60;;;2.60;;
76604;SDS011;65496;50.978;16.998;2023-03-14T06:02:54;3.53;;;2.63;;
76604;SDS011;65496;50.978;16.998;2023-03-14T06:05:21;4.97;;;2.95;;
76604;SDS011;65496;50.978;16.998;2023-03-14T06:07:47;8.35;;;2.55;;
76604;SDS011;65496;50.978;16.998;2023-03-14T06:10:13;7.57;;;2.40;;
76604;SDS011;65496;50.978;16.998;2023-03-14T06:12:39;3.53;;;2.50;;
76604;SDS011;65496;50.978;16.998;2023-03-14T06:15:05;3.92;;;2.55;;
76604;SDS011;65496;50.978;16.998;2023-03-14T06:17:31;4.35;;;2.42;;
76604;SDS011;65496;50.978;16.998;2023-03-14T06:19:58;3.67;;;2.45;;
76604;SDS011;65496;50.978;16.998;2023-03-14T06:22:23;4.60;;;2.60;;
76604;SDS011;65496;50.978;16.998;2023-03-14T06:24:50;3.60;;;2.55;;
76604;SDS011;65496;50.978;16.998;2023-03-14T06:27:16;3.47;;;2.50;;
76604;SDS011;65496;50.978;16.998;2023-03-14T06:29:42;4.05;;;2.92;;
76604;SDS011;65496;50.978;16.998;2023-03-14T06:32:08;3.05;;;2.13;;
76604;SDS011;65496;50.978;16.998;2023-03-14T06:34:34;3.13;;;2.40;;
76604;SDS011;65496;50.978;16.998;2023-03-14T06:37:00;4.25;;;2.35;;
76604;SDS011;65496;50.978;16.998;2023-03-14T06:39:26;4.47;;;2.45;;
76604;SDS011;65496;50.978;16.998;2023-03-14T06:41:52;7.03;;;2.20;;
76604;SDS011;65496;50.978;16.998;2023-03-14T06:44:18;3.65;;;2.50;;
76604;SDS011;65496;50.978;16.998;2023-03-14T06:46:44;4.00;;;2.55;;
76604;SDS011;65496;50.978;16.998;2023-03-14T06:49:10;2.85;;;2.30;;
76604;SDS011;65496;50.978;16.998;2023-03-14T06:51:36;4.57;;;2.22;;
76604;SDS011;65496;50.978;16.998;2023-03-14T06:54:02;7.30;;;2.70;;
76604;SDS011;65496;50.978;16.998;2023-03-14T06:56:28;3.22;;;2.30;;
76604;SDS011;65496;50.978;16.998;2023-03-14T06:58:54;2.90;;;2.28;;
76604;SDS011;65496;50.978;16.998;2023-03-14T07:01:24;4.47;;;2.60;;
76604;SDS011;65496;50.978;16.998;2023-03-14T07:03:52;3.15;;;2.40;;
76604;SDS011;65496;50.978;16.998;2023-03-14T07:06:17;3.85;;;2.30;;
76604;SDS011;65496;50.978;16.998;2023-03-14T07:08:44;4.68;;;2.60;;
76604;SDS011;65496;50.978;16.998;2023-03-14T07:11:09;4.20;;;2.50;;
76604;SDS011;65496;50.978;16.998;2023-03-14T07:13:37;5.07;;;2.58;;
76604;SDS011;65496;50.978;16.998;2023-03-14T07:16:04;3.80;;;2.35;;
76604;SDS011;65496;50.978;16.998;2023-03-14T07:18:31;4.18;;;2.80;;
76604;SDS011;65496;50.978;16.998;2023-03-14T07:20:57;5.95;;;3.17;;
76604;SDS011;65496;50.978;16.998;2023-03-14T07:23:23;5.20;;;2.53;;
76604;SDS011;65496;50.978;16.998;2023-03-14T07:25:49;5.00;;;2.97;;
76604;SDS011;65496;50.978;16.998;2023-03-14T07:28:16;6.22;;;3.05;;
76604;SDS011;65496;50.978;16.998;2023-03-14T07:30:42;4.28;;;2.80;;
76604;SDS011;65496;50.978;16.998;2023-03-14T07:33:09;4.30;;;2.53;;
76604;SDS011;65496;50.978;16.998;2023-03-14T07:35:34;7.07;;;3.08;;
76604;SDS011;65496;50.978;16.998;2023-03-14T07:38:01;4.75;;;2.53;;
76604;SDS011;65496;50.978;16.998;2023-03-14T07:40:27;4.60;;;2.65;;
76604;SDS011;65496;50.978;16.998;2023-03-14T07:42:53;5.55;;;2.78;;
76604;SDS011;65496;50.978;16.998;2023-03-14T07:45:20;7.28;;;3.13;;
76604;SDS011;65496;50.978;16.998;2023-03-14T07:47:47;8.35;;;3.13;;
76604;SDS011;65496;50.978;16.998;2023-03-14T07:50:13;4.63;;;2.83;;
76604;SDS011;65496;50.978;16.998;2023-03-14T07:52:39;6.70;;;3.13;;
76604;SDS011;65496;50.978;16.998;2023-03-14T07:55:05;4.55;;;2.70;;
76604;SDS011;65496;50.978;16.998;2023-03-14T07:57:31;4.55;;;2.42;;
76604;SDS011;65496;50.978;16.998;2023-03-14T07:59:57;5.82;;;2.83;;
76604;SDS011;65496;50.978;16.998;2023-03-14T08:02:23;4.53;;;2.70;;
76604;SDS011;65496;50.978;16.998;2023-03-14T08:04:50;4.25;;;2.92;;
76604;SDS011;65496;50.978;16.998;2023-03-14T08:07:16;5.10;;;2.70;;
76604;SDS011;65496;50.978;16.998;2023-03-14T08:09:42;4.15;;;2.60;;
76604;SDS011;65496;50.978;16.998;2023-03-14T08:12:09;5.22;;;2.70;;
76604;SDS011;65496;50.978;16.998;2023-03-14T08:14:35;5.05;;;3.03;;
76604;SDS011;65496;50.978;16.998;2023-03-14T08:17:01;3.58;;;2.67;;
76604;SDS011;65496;50.978;16.998;2023-03-14T08:19:27;5.03;;;2.80;;
76604;SDS011;65496;50.978;16.998;2023-03-14T08:21:54;5.25;;;2.75;;
76604;SDS011;65496;50.978;16.998;2023-03-14T08:24:19;3.75;;;2.70;;
76604;SDS011;65496;50.978;16.998;2023-03-14T08:26:46;3.67;;;2.88;;
76604;SDS011;65496;50.978;16.998;2023-03-14T08:29:12;4.03;;;2.70;;
76604;SDS011;65496;50.978;16.998;2023-03-14T08:31:38;6.30;;;3.13;;
76604;SDS011;65496;50.978;16.998;2023-03-14T08:34:04;6.20;;;2.70;;
76604;SDS011;65496;50.978;16.998;2023-03-14T08:36:32;5.22;;;3.13;;
76604;SDS011;65496;50.978;16.998;2023-03-14T08:38:58;3.97;;;2.95;;
76604;SDS011;65496;50.978;16.998;2023-03-14T08:41:24;4.88;;;2.70;;
76604;SDS011;65496;50.978;16.998;2023-03-14T08:43:50;4.93;;;2.83;;
76604;SDS011;65496;50.978;16.998;2023-03-14T08:46:17;4.88;;;3.08;;
76604;SDS011;65496;50.978;16.998;2023-03-14T08:48:43;6.15;;;2.80;;
76604;SDS011;65496;50.978;16.998;2023-03-14T08:51:09;5.60;;;3.05;;
76604;SDS011;65496;50.978;16.998;2023-03-14T08:53:38;5.78;;;3.15;;
76604;SDS011;65496;50.978;16.998;2023-03-14T08:56:04;6.00;;;3.40;;
76604;SDS011;65496;50.978;16.998;2023-03-14T08:58:31;4.78;;;3.33;;
76604;SDS011;65496;50.978;16.998;2023-03-14T09:00:58;5.13;;;2.85;;
76604;SDS011;65496;50.978;16.998;2023-03-14T09:03:25;4.60;;;3.15;;
76604;SDS011;65496;50.978;16.998;2023-03-14T09:05:51;4.22;;;3.08;;
76604;SDS011;65496;50.978;16.998;2023-03-14T09:08:17;4.93;;;3.35;;
76604;SDS011;65496;50.978;16.998;2023-03-14T09:10:44;4.82;;;2.85;;
76604;SDS011;65496;50.978;16.998;2023-03-14T09:13:10;5.70;;;3.10;;
76604;SDS011;65496;50.978;16.998;2023-03-14T09:15:36;4.78;;;2.80;;
76604;SDS011;65496;50.978;16.998;2023-03-14T09:18:02;4.00;;;2.90;;
76604;SDS011;65496;50.978;16.998;2023-03-14T09:20:28;4.68;;;3.22;;
76604;SDS011;65496;50.978;16.998;2023-03-14T09:22:54;4.57;;;3.13;;
76604;SDS011;65496;50.978;16.998;2023-03-14T09:25:20;4.03;;;2.90;;
76604;SDS011;65496;50.978;16.998;2023-03-14T09:27:46;5.15;;;3.13;;
76604;SDS011;65496;50.978;16.998;2023-03-14T09:30:12;4.88;;;2.78;;
76604;SDS011;65496;50.978;16.998;2023-03-14T09:32:39;5.20;;;3.30;;
76604;SDS011;65496;50.978;16.998;2023-03-14T09:35:05;4.20;;;2.50;;
76604;SDS011;65496;50.978;16.998;2023-03-14T09:37:31;4.95;;;3.08;;
76604;SDS011;65496;50.978;16.998;2023-03-14T09:39:58;7.13;;;3.15;;
76604;SDS011;65496;50.978;16.998;2023-03-14T09:42:25;4.13;;;3.00;;
76604;SDS011;65496;50.978;16.998;2023-03-14T09:44:54;4.22;;;2.95;;
76604;SDS011;65496;50.978;16.998;2023-03-14T09:47:24;4.35;;;2.75;;
76604;SDS011;65496;50.978;16.998;2023-03-14T09:49:52;4.10;;;2.55;;
76604;SDS011;65496;50.978;16.998;2023-03-14T09:54:51;3.63;;;2.58;;
76604;SDS011;65496;50.978;16.998;2023-03-14T09:57:37;3.47;;;2.60;;
76604;SDS011;65496;50.978;16.998;2023-03-14T10:00:16;4.85;;;2.80;;
76604;SDS011;65496;50.978;16.998;2023-03-14T10:02:48;4.15;;;2.78;;
76604;SDS011;65496;50.978;16.998;2023-03-14T10:05:20;4.75;;;3.13;;
76604;SDS011;65496;50.978;16.998;2023-03-14T10:07:47;4.63;;;2.65;;
76604;SDS011;65496;50.978;16.998;2023-03-14T10:10:15;4.05;;;2.70;;
76604;SDS011;65496;50.978;16.998;2023-03-14T10:12:45;3.65;;;2.50;;
76604;SDS011;65496;50.978;16.998;2023-03-14T10:15:14;4.53;;;2.80;;
76604;SDS011;65496;50.978;16.998;2023-03-14T10:17:48;4.95;;;2.72;;
76604;SDS011;65496;50.978;16.998;2023-03-14T10:20:30;3.33;;;2.28;;
76604;SDS011;65496;50.978;16.998;2023-03-14T10:28:38;4.70;;;2.75;;
76604;SDS011;65496;50.978;16.998;2023-03-14T10:31:04;3.58;;;2.50;;
76604;SDS011;65496;50.978;16.998;2023-03-14T10:33:32;3.38;;;2.30;;
76604;SDS011;65496;50.978;16.998;2023-03-14T10:36:00;3.22;;;2.53;;
76604;SDS011;65496;50.978;16.998;2023-03-14T10:38:34;4.00;;;2.65;;
76604;SDS011;65496;50.978;16.998;2023-03-14T10:41:03;2.90;;;2.30;;
76604;SDS011;65496;50.978;16.998;2023-03-14T10:43:42;6.57;;;2.60;;
76604;SDS011;65496;50.978;16.998;2023-03-14T10:46:11;3.08;;;2.30;;
76604;SDS011;65496;50.978;16.998;2023-03-14T10:48:41;3.38;;;2.40;;
76604;SDS011;65496;50.978;16.998;2023-03-14T10:51:11;3.33;;;2.50;;
76604;SDS011;65496;50.978;16.998;2023-03-14T10:53:49;3.10;;;2.08;;
76604;SDS011;65496;50.978;16.998;2023-03-14T10:56:27;3.88;;;2.60;;
76604;SDS011;65496;50.978;16.998;2023-03-14T10:58:59;4.32;;;2.40;;
76604;SDS011;65496;50.978;16.998;2023-03-14T11:04:02;3.78;;;2.40;;
76604;SDS011;65496;50.978;16.998;2023-03-14T11:21:01;3.65;;;2.50;;
76604;SDS011;65496;50.978;16.998;2023-03-14T11:29:12;4.45;;;2.95;;
76604;SDS011;65496;50.978;16.998;2023-03-14T11:31:48;4.78;;;2.35;;
76604;SDS011;65496;50.978;16.998;2023-03-14T11:34:20;3.25;;;2.20;;
76604;SDS011;65496;50.978;16.998;2023-03-14T11:37:05;2.75;;;2.10;;
76604;SDS011;65496;50.978;16.998;2023-03-14T11:39:41;3.13;;;2.13;;
76604;SDS011;65496;50.978;16.998;2023-03-14T11:42:16;2.90;;;2.10;;
76604;SDS011;65496;50.978;16.998;2023-03-14T11:44:46;4.00;;;2.30;;
76604;SDS011;65496;50.978;16.998;2023-03-14T11:52:21;3.88;;;2.53;;
76604;SDS011;65496;50.978;16.998;2023-03-14T11:55:17;4.22;;;2.67;;
76604;SDS011;65496;50.978;16.998;2023-03-14T11:57:42;3.92;;;2.50;;
76604;SDS011;65496;50.978;16.998;2023-03-14T12:02:48;3.22;;;2.50;;
76604;SDS011;65496;50.978;16.998;2023-03-14T12:10:29;4.18;;;2.50;;
76604;SDS011;65496;50.978;16.998;2023-03-14T12:13:02;4.50;;;2.70;;
76604;SDS011;65496;50.978;16.998;2023-03-14T12:15:29;3.92;;;2.60;;
76604;SDS011;65496;50.978;16.998;2023-03-14T12:17:55;3.88;;;2.65;;
76604;SDS011;65496;50.978;16.998;2023-03-14T12:20:24;4.22;;;2.90;;
76604;SDS011;65496;50.978;16.998;2023-03-14T12:22:52;3.80;;;2.55;;
76604;SDS011;65496;50.978;16.998;2023-03-14T12:25:24;3.30;;;2.55;;
76604;SDS011;65496;50.978;16.998;2023-03-14T12:30:26;3.65;;;3.03;;
76604;SDS011;65496;50.978;16.998;2023-03-14T12:35:37;3.10;;;2.42;;
76604;SDS011;65496;50.978;16.998;2023-03-14T12:41:05;3.55;;;2.80;;
76604;SDS011;65496;50.978;16.998;2023-03-14T12:43:42;4.22;;;3.10;;
76604;SDS011;65496;50.978;16.998;2023-03-14T12:48:44;4.50;;;2.92;;
76604;SDS011;65496;50.978;16.998;2023-03-14T13:02:02;4.43;;;3.00;;
76604;SDS011;65496;50.978;16.998;2023-03-14T13:04:37;4.80;;;3.22;;
76604;SDS011;65496;50.978;16.998;2023-03-14T13:07:29;3.78;;;2.80;;
76604;SDS011;65496;50.978;16.998;2023-03-14T13:10:39;4.22;;;2.85;;
76604;SDS011;65496;50.978;16.998;2023-03-14T13:15:23;3.78;;;2.70;;
76604;SDS011;65496;50.978;16.998;2023-03-14T13:17:53;5.13;;;3.33;;
76604;SDS011;65496;50.978;16.998;2023-03-14T13:20:28;3.85;;;2.83;;
76604;SDS011;65496;50.978;16.998;2023-03-14T13:22:57;3.95;;;2.83;;
76604;SDS011;65496;50.978;16.998;2023-03-14T13:25:23;3.92;;;2.78;;
76604;SDS011;65496;50.978;16.998;2023-03-14T13:27:52;4.38;;;2.70;;
76604;SDS011;65496;50.978;16.998;2023-03-14T13:30:20;5.28;;;2.90;;
76604;SDS011;65496;50.978;16.998;2023-03-14T13:32:49;4.20;;;2.92;;
76604;SDS011;65496;50.978;16.998;2023-03-14T13:35:26;3.55;;;2.58;;
76604;SDS011;65496;50.978;16.998;2023-03-14T13:37:57;4.18;;;2.50;;
76604;SDS011;65496;50.978;16.998;2023-03-14T13:40:34;3.95;;;2.88;;
76604;SDS011;65496;50.978;16.998;2023-03-14T13:43:17;4.03;;;2.88;;
76604;SDS011;65496;50.978;16.998;2023-03-14T13:48:26;4.05;;;3.10;;
76604;SDS011;65496;50.978;16.998;2023-03-14T13:51:01;3.60;;;2.47;;
76604;SDS011;65496;50.978;16.998;2023-03-14T13:53:32;4.18;;;2.90;;
76604;SDS011;65496;50.978;16.998;2023-03-14T13:58:37;3.78;;;2.45;;
76604;SDS011;65496;50.978;16.998;2023-03-14T14:01:05;3.53;;;2.50;;
76604;SDS011;65496;50.978;16.998;2023-03-14T14:03:44;3.58;;;2.50;;
76604;SDS011;65496;50.978;16.998;2023-03-14T14:06:26;5.72;;;2.70;;
76604;SDS011;65496;50.978;16.998;2023-03-14T14:08:59;3.72;;;2.63;;
76604;SDS011;65496;50.978;16.998;2023-03-14T14:11:36;3.42;;;2.60;;
76604;SDS011;65496;50.978;16.998;2023-03-14T14:14:10;4.20;;;2.63;;
76604;SDS011;65496;50.978;16.998;2023-03-14T14:16:38;4.07;;;2.60;;
76604;SDS011;65496;50.978;16.998;2023-03-14T14:19:05;3.63;;;2.72;;
76604;SDS011;65496;50.978;16.998;2023-03-14T14:21:31;3.60;;;2.13;;
76604;SDS011;65496;50.978;16.998;2023-03-14T14:23:57;4.60;;;2.92;;
76604;SDS011;65496;50.978;16.998;2023-03-14T14:26:25;5.13;;;2.75;;
76604;SDS011;65496;50.978;16.998;2023-03-14T14:29:03;3.72;;;2.40;;
76604;SDS011;65496;50.978;16.998;2023-03-14T14:31:30;4.60;;;2.70;;
76604;SDS011;65496;50.978;16.998;2023-03-14T14:36:27;5.07;;;2.45;;
76604;SDS011;65496;50.978;16.998;2023-03-14T14:38:58;3.30;;;2.47;;
76604;SDS011;65496;50.978;16.998;2023-03-14T14:41:31;3.50;;;2.20;;
76604;SDS011;65496;50.978;16.998;2023-03-14T14:44:00;3.60;;;2.53;;
76604;SDS011;65496;50.978;16.998;2023-03-14T14:46:30;6.28;;;2.63;;
76604;SDS011;65496;50.978;16.998;2023-03-14T14:49:02;4.07;;;2.70;;
76604;SDS011;65496;50.978;16.998;2023-03-14T14:51:32;3.50;;;2.50;;
76604;SDS011;65496;50.978;16.998;2023-03-14T14:54:14;3.97;;;2.95;;
76604;SDS011;65496;50.978;16.998;2023-03-14T14:56:47;7.18;;;3.33;;
76604;SDS011;65496;50.978;16.998;2023-03-14T14:59:26;4.22;;;2.75;;
76604;SDS011;65496;50.978;16.998;2023-03-14T15:01:56;4.43;;;2.65;;
76604;SDS011;65496;50.978;16.998;2023-03-14T15:04:24;4.47;;;2.70;;
76604;SDS011;65496;50.978;16.998;2023-03-14T15:06:51;7.05;;;3.50;;
76604;SDS011;65496;50.978;16.998;2023-03-14T15:09:18;6.32;;;2.53;;
76604;SDS011;65496;50.978;16.998;2023-03-14T15:11:45;4.75;;;2.50;;
76604;SDS011;65496;50.978;16.998;2023-03-14T15:14:12;3.95;;;2.55;;
76604;SDS011;65496;50.978;16.998;2023-03-14T15:16:39;5.35;;;3.55;;
76604;SDS011;65496;50.978;16.998;2023-03-14T15:19:10;8.10;;;3.15;;
76604;SDS011;65496;50.978;16.998;2023-03-14T15:21:40;5.50;;;2.90;;
76604;SDS011;65496;50.978;16.998;2023-03-14T15:24:08;6.38;;;3.65;;
76604;SDS011;65496;50.978;16.998;2023-03-14T15:26:35;7.18;;;3.20;;
76604;SDS011;65496;50.978;16.998;2023-03-14T15:29:01;6.05;;;3.25;;
76604;SDS011;65496;50.978;16.998;2023-03-14T15:31:27;6.18;;;3.10;;
76604;SDS011;65496;50.978;16.998;2023-03-14T15:33:54;5.85;;;3.78;;
76604;SDS011;65496;50.978;16.998;2023-03-14T15:36:28;5.15;;;3.28;;
76604;SDS011;65496;50.978;16.998;2023-03-14T15:38:59;5.93;;;3.35;;
76604;SDS011;65496;50.978;16.998;2023-03-14T15:41:25;5.70;;;3.13;;
76604;SDS011;65496;50.978;16.998;2023-03-14T15:43:53;5.05;;;2.78;;
76604;SDS011;65496;50.978;16.998;2023-03-14T15:46:19;5.68;;;3.60;;
76604;SDS011;65496;50.978;16.998;2023-03-14T15:48:47;6.47;;;3.50;;
76604;SDS011;65496;50.978;16.998;2023-03-14T15:51:15;7.72;;;3.80;;
76604;SDS011;65496;50.978;16.998;2023-03-14T15:53:41;6.43;;;3.38;;
76604;SDS011;65496;50.978;16.998;2023-03-14T15:56:12;6.82;;;2.88;;
76604;SDS011;65496;50.978;16.998;2023-03-14T15:58:41;5.03;;;3.17;;
76604;SDS011;65496;50.978;16.998;2023-03-14T16:01:07;6.90;;;3.35;;
76604;SDS011;65496;50.978;16.998;2023-03-14T16:03:35;6.00;;;3.92;;